Port Sanilac, MI

10:28 AM EST on January 16, 2017 (GMT -0500)
KMIPORTS2 | | Change Station
Active Advisory: Winter Weather Advisory

Elev 604 ft 43.47 °N, 82.56 °W | Updated 4 seconds ago

Partly Cloudy
Partly Cloudy
28.8 °F
Feels Like 29 °F
N
0.0
Wind Variable Wind from SW
Gusts 4.0 mph

Today
High -- | Low -- °F
--% Chance of Precip.
Yesterday
High -- | Low -- °F
Precip. -- in
Pressure 30.33 in
Visibility 10.0 miles
Clouds Clear
Windchill 29 °F
Dew Point 25 °F
Humidity 87%
Rainfall 0.00 in
Snow Depth Not available.
7:59 AM 5:21 PM
Waning Gibbous, 80% visible
METAR KBAX 161515Z AUTO 21004KT 10SM CLR M03/M05 A3033 RMK AO2 T10301051
Pressure 30.33 in
Visibility 10.0 miles
Clouds Clear
Windchill 29 °F
Dew Point 25 °F
Humidity 87%
Rainfall 0.00 in
Snow Depth Not available.
7:59 AM 5:21 PM
Waning Gibbous, 80% visible
METAR KBAX 161515Z AUTO 21004KT 10SM CLR M03/M05 A3033 RMK AO2 T10301051

Get Your Daily Forecast Email!

Thanks for signing up!

Be on the lookout for a verification email in your inbox.

You'll start receiving the daily forecast at 8 AM.

×

10-Day Weather Forecast

Almanac

Astronomy

Jan. 16, 2017 Rise Set
Actual Time
Civil Twilight
Nautical Twilight
Astronomical Twilight
Moon
Length of Visible Light
Length of Day
Tomorrow will be .
, % of the Moon is Illuminated

Today's Extremes

State Highs State Lows

Community

WunderPhotos

Upload Photos

1,962,540 photos uploaded!

WunderBlog® & News

Nearby

Air Quality

  Air Quality AQ Index Pollutant
Not available.

Snow Depth

Station Depth Elevation

Earthquake Activity

City Distance Mag. Time & Date
Minimum magnitude displayed is 2.5.

Coastal Water Temperatures

Place Temperature

Stations

Nearby Weather Stations

Station Location Temp. Windchill Dew Point Humidity Wind Precip. Elev Updated Type
                   

Watches & Warnings

Winter Weather Advisory
Issued: 9:52 AM EST Jan. 16, 2017 – National Weather Service

... Winter Weather Advisory remains in effect from 7 PM this
evening to 5 am EST Tuesday...

Hazardous weather...

* a wintry mix of snow... sleet... and freezing rain will develop this
   evening... becoming straight freezing rain overnight with
   temperatures just below 32 degrees.

* Temperatures will rise above 32 degrees toward sunrise
   Tuesday... allowing for a changeover to a cold rain.

Impacts...

* snow and sleet accumulations less than one inch... but enough
   to makes roads slippery.

* Ice accumulation of a tenth to two tenths of an inch
   expected... mainly on elevated surfaces.

* Icy roads... mainly secondary and untreated roads.

Precautionary/preparedness actions...

A Winter Weather Advisory means that periods of snow... sleet... or
freezing rain will cause travel difficulties. Be prepared for
slippery roads and limited visibilities... and use caution while
driving.

* Prepare... plan... and stay informed. Visit
   www.Weather.Gov/DTX/weather_preparedness



Rbp